createdAt,value
2018-05-08T00:00:05.837Z,978.35
2018-05-08T00:01:05.408Z,978.51
2018-05-08T00:02:05.256Z,978.46
2018-05-08T00:03:05.800Z,978.41
2018-05-08T00:04:05.786Z,978.38
2018-05-08T00:05:05.239Z,978.38
2018-05-08T00:06:05.417Z,978.52
2018-05-08T00:07:07.163Z,978.44
2018-05-08T00:08:05.736Z,978.52
2018-05-08T00:09:05.436Z,978.46
2018-05-08T00:10:05.958Z,978.39
2018-05-08T00:11:05.011Z,978.42
2018-05-08T00:12:06.157Z,978.52
2018-05-08T00:13:05.756Z,978.30
2018-05-08T00:14:05.200Z,978.42
2018-05-08T00:15:05.288Z,978.52
2018-05-08T00:16:05.247Z,978.42
2018-05-08T00:17:05.134Z,978.50
2018-05-08T00:18:05.910Z,978.39
2018-05-08T00:19:05.143Z,978.42
2018-05-08T00:20:05.738Z,978.37
2018-05-08T00:21:05.423Z,978.34
2018-05-08T00:22:06.426Z,978.29
2018-05-08T00:23:05.790Z,978.29
2018-05-08T00:24:05.019Z,978.45
2018-05-08T00:25:05.562Z,978.35
2018-05-08T00:26:05.672Z,978.38
2018-05-08T00:27:05.665Z,978.32
2018-05-08T00:28:15.451Z,978.26
2018-05-08T00:29:05.487Z,978.35
2018-05-08T00:30:05.497Z,978.35
2018-05-08T00:31:05.503Z,978.27
2018-05-08T00:32:06.213Z,978.33
2018-05-08T00:33:05.355Z,978.24
2018-05-08T00:34:05.363Z,978.36
2018-05-08T00:35:05.875Z,978.33
2018-05-08T00:36:05.809Z,978.22
2018-05-08T00:37:05.522Z,978.28
2018-05-08T00:38:05.747Z,978.22
2018-05-08T00:39:05.813Z,978.39
2018-05-08T00:40:04.916Z,978.22
2018-05-08T00:41:05.686Z,978.28
2018-05-08T00:42:05.379Z,978.17
2018-05-08T00:43:05.401Z,978.28
2018-05-08T00:44:05.858Z,978.28
2018-05-08T00:45:05.382Z,978.17
2018-05-08T00:46:10.423Z,978.09
2018-05-08T00:47:05.939Z,978.14
2018-05-08T00:48:05.987Z,978.17
2018-05-08T00:49:05.296Z,978.23
2018-05-08T00:50:06.172Z,978.12
2018-05-08T00:51:05.160Z,978.17
2018-05-08T00:52:05.103Z,978.15
2018-05-08T00:53:05.854Z,978.17
2018-05-08T00:54:05.808Z,978.03
2018-05-08T00:55:05.358Z,978.06
2018-05-08T00:56:05.653Z,978.09
2018-05-08T00:57:05.125Z,978.12
2018-05-08T00:58:05.151Z,978.12
2018-05-08T00:59:05.383Z,978.09
2018-05-08T01:00:05.094Z,978.15
2018-05-08T01:01:05.676Z,978.15
2018-05-08T01:02:05.265Z,978.12
2018-05-08T01:03:05.580Z,978.07
2018-05-08T01:04:05.488Z,978.07
2018-05-08T01:05:05.899Z,978.04
2018-05-08T01:06:05.788Z,978.18
2018-05-08T01:07:06.076Z,978.07
2018-05-08T01:08:10.699Z,978.07
2018-05-08T01:09:05.592Z,978.10
2018-05-08T01:10:06.194Z,978.01
2018-05-08T01:11:05.153Z,978.18
2018-05-08T01:12:05.857Z,978.24
2018-05-08T01:13:05.399Z,977.98
2018-05-08T01:14:05.886Z,978.18
2018-05-08T01:15:06.013Z,978.18
2018-05-08T01:16:05.770Z,978.18
2018-05-08T01:17:05.972Z,978.10
2018-05-08T01:18:07.180Z,978.07
2018-05-08T01:19:05.473Z,978.07
2018-05-08T01:20:06.160Z,978.07
2018-05-08T01:21:05.777Z,978.18
2018-05-08T01:22:05.417Z,978.09
2018-05-08T01:23:05.736Z,978.04
2018-05-08T01:24:05.774Z,977.98
2018-05-08T01:25:05.915Z,978.12
2018-05-08T01:26:05.272Z,978.04
2018-05-08T01:27:05.663Z,978.15
2018-05-08T01:28:09.931Z,978.09
2018-05-08T01:29:05.610Z,978.06
2018-05-08T01:30:05.502Z,977.98
2018-05-08T01:31:10.295Z,977.98
2018-05-08T01:32:05.517Z,978.09
2018-05-08T01:33:05.651Z,978.04
2018-05-08T01:34:05.700Z,978.01
2018-05-08T01:35:05.819Z,978.01
2018-05-08T01:36:10.155Z,978.09
2018-05-08T01:37:05.984Z,978.01
2018-05-08T01:38:05.605Z,978.06
2018-05-08T01:39:05.468Z,977.95
2018-05-08T01:40:05.642Z,978.04
2018-05-08T01:41:05.979Z,978.01
2018-05-08T01:42:05.800Z,978.09
2018-05-08T01:43:05.454Z,978.04
2018-05-08T01:44:10.833Z,978.09
2018-05-08T01:45:05.185Z,978.04
2018-05-08T01:46:06.019Z,978.01
2018-05-08T01:47:05.204Z,977.87
2018-05-08T01:48:05.276Z,977.98
2018-05-08T01:49:05.095Z,977.98
2018-05-08T01:50:05.205Z,978.01
2018-05-08T01:51:05.947Z,977.92
2018-05-08T01:52:05.917Z,978.01
2018-05-08T01:53:05.758Z,977.95
2018-05-08T01:54:05.485Z,977.98
2018-05-08T01:55:05.277Z,977.90
2018-05-08T01:56:05.576Z,977.96
2018-05-08T01:57:05.309Z,977.99
2018-05-08T01:58:05.792Z,977.99
2018-05-08T01:59:05.326Z,978.13
2018-05-08T02:00:05.582Z,978.02
2018-05-08T02:01:05.183Z,977.96
2018-05-08T02:02:05.153Z,977.96
2018-05-08T02:03:05.893Z,977.91
2018-05-08T02:04:10.660Z,977.85
2018-05-08T02:05:05.571Z,977.99
2018-05-08T02:06:05.888Z,977.88
2018-05-08T02:07:05.690Z,978.03
2018-05-08T02:08:04.973Z,978.00
2018-05-08T02:09:06.941Z,977.94
2018-05-08T02:10:05.660Z,977.86
2018-05-08T02:11:05.712Z,977.94
2018-05-08T02:12:05.279Z,978.06
2018-05-08T02:13:06.526Z,977.97
2018-05-08T02:14:05.611Z,977.89
2018-05-08T02:15:05.736Z,977.89
2018-05-08T02:16:05.140Z,977.95
2018-05-08T02:17:05.840Z,977.86
2018-05-08T02:18:05.072Z,977.87
2018-05-08T02:19:06.008Z,977.89
2018-05-08T02:20:05.589Z,977.84
2018-05-08T02:21:05.283Z,977.92
2018-05-08T02:22:05.917Z,977.90
2018-05-08T02:23:05.005Z,977.90
2018-05-08T02:24:05.334Z,977.90
2018-05-08T02:25:06.306Z,977.79
2018-05-08T02:26:05.904Z,977.87
2018-05-08T02:27:05.572Z,977.85
2018-05-08T02:28:05.764Z,977.90
2018-05-08T02:29:05.605Z,977.85
2018-05-08T02:30:05.845Z,977.93
2018-05-08T02:31:06.005Z,977.79
2018-05-08T02:32:05.024Z,977.85
2018-05-08T02:33:05.454Z,977.88
2018-05-08T02:34:05.098Z,977.85
2018-05-08T02:35:05.489Z,977.82
2018-05-08T02:36:05.818Z,977.91
2018-05-08T02:37:05.713Z,977.79
2018-05-08T02:38:05.836Z,977.82
2018-05-08T02:39:06.014Z,977.74
2018-05-08T02:40:05.166Z,977.79
2018-05-08T02:41:05.125Z,977.91
2018-05-08T02:42:06.347Z,977.94
2018-05-08T02:43:10.101Z,977.88
2018-05-08T02:44:05.216Z,977.77
2018-05-08T02:45:05.446Z,977.77
2018-05-08T02:46:05.524Z,977.71
2018-05-08T02:47:05.094Z,977.91
2018-05-08T02:48:05.599Z,977.74
2018-05-08T02:49:05.698Z,977.80
2018-05-08T02:50:05.888Z,977.83
2018-05-08T02:51:04.947Z,977.77
2018-05-08T02:52:05.451Z,977.74
2018-05-08T02:53:05.750Z,977.74
2018-05-08T02:54:05.482Z,977.72
2018-05-08T02:55:05.580Z,977.69
2018-05-08T02:56:05.181Z,977.66
2018-05-08T02:57:04.999Z,977.72
2018-05-08T02:58:05.806Z,977.66
2018-05-08T02:59:05.366Z,977.61
2018-05-08T03:00:06.151Z,977.66
2018-05-08T03:01:05.835Z,977.83
2018-05-08T03:02:05.128Z,977.78
2018-05-08T03:03:10.203Z,977.69
2018-05-08T03:04:05.471Z,977.83
2018-05-08T03:05:05.995Z,977.78
2018-05-08T03:06:05.207Z,977.75
2018-05-08T03:07:05.855Z,977.81
2018-05-08T03:08:05.688Z,977.92
2018-05-08T03:09:05.879Z,977.81
2018-05-08T03:10:05.535Z,977.75
2018-05-08T03:11:10.119Z,977.87
2018-05-08T03:12:10.361Z,977.72
2018-05-08T03:13:06.671Z,977.59
2018-05-08T03:14:05.781Z,977.78
2018-05-08T03:15:05.941Z,977.84
2018-05-08T03:16:05.651Z,977.72
2018-05-08T03:17:05.629Z,977.81
2018-05-08T03:18:05.572Z,977.75
2018-05-08T03:19:05.974Z,977.90
2018-05-08T03:20:05.116Z,977.67
2018-05-08T03:21:05.884Z,977.67
2018-05-08T03:22:05.511Z,977.76
2018-05-08T03:23:05.755Z,977.79
2018-05-08T03:24:05.571Z,977.79
2018-05-08T03:25:05.835Z,977.79
2018-05-08T03:26:05.896Z,977.85
2018-05-08T03:27:05.698Z,977.71
2018-05-08T03:28:05.030Z,977.76
2018-05-08T03:29:10.077Z,977.79
2018-05-08T03:30:05.324Z,977.85
2018-05-08T03:31:06.380Z,977.60
2018-05-08T03:32:05.067Z,977.68
2018-05-08T03:33:05.052Z,977.58
2018-05-08T03:34:05.287Z,977.71
2018-05-08T03:35:05.316Z,977.80
2018-05-08T03:36:05.259Z,977.74
2018-05-08T03:37:05.469Z,977.68
2018-05-08T03:38:05.672Z,977.71
2018-05-08T03:39:06.224Z,977.65
2018-05-08T03:40:05.919Z,977.61
2018-05-08T03:41:05.670Z,977.65
2018-05-08T03:42:06.018Z,977.61
2018-05-08T03:43:05.203Z,977.58
2018-05-08T03:44:05.936Z,977.66
2018-05-08T03:45:05.440Z,977.58
2018-05-08T03:46:05.701Z,977.41
2018-05-08T03:47:06.013Z,977.58
2018-05-08T03:48:06.160Z,977.47
2018-05-08T03:49:05.918Z,977.58
2018-05-08T03:50:05.619Z,977.50
2018-05-08T03:51:10.389Z,977.58
2018-05-08T03:52:05.794Z,977.61
2018-05-08T03:53:05.510Z,977.58
2018-05-08T03:54:05.213Z,977.66
2018-05-08T03:55:05.240Z,977.41
2018-05-08T03:56:05.654Z,977.55
2018-05-08T03:57:05.612Z,977.69
2018-05-08T03:58:05.508Z,977.66
2018-05-08T03:59:05.554Z,977.47
2018-05-08T04:00:05.553Z,977.69
2018-05-08T04:01:10.472Z,977.61
2018-05-08T04:02:05.009Z,977.61
2018-05-08T04:03:10.706Z,977.41
2018-05-08T04:04:05.277Z,977.50
2018-05-08T04:05:05.138Z,977.50
2018-05-08T04:06:05.071Z,977.44
2018-05-08T04:07:10.073Z,977.50
2018-05-08T04:08:05.549Z,977.53
2018-05-08T04:09:05.565Z,977.47
2018-05-08T04:10:05.349Z,977.47
2018-05-08T04:11:05.585Z,977.44
2018-05-08T04:12:06.074Z,977.50
2018-05-08T04:13:05.891Z,977.50
2018-05-08T04:14:06.060Z,977.44
2018-05-08T04:15:07.012Z,977.38
2018-05-08T04:16:05.430Z,977.44
2018-05-08T04:17:05.567Z,977.35
2018-05-08T04:18:05.513Z,977.35
2018-05-08T04:19:05.717Z,977.32
2018-05-08T04:20:05.951Z,977.26
2018-05-08T04:21:06.013Z,977.20
2018-05-08T04:22:08.256Z,977.39
2018-05-08T04:23:05.182Z,977.33
2018-05-08T04:24:06.026Z,977.32
2018-05-08T04:25:06.490Z,977.31
2018-05-08T04:26:06.450Z,977.28
2018-05-08T04:27:05.642Z,977.35
2018-05-08T04:28:05.255Z,977.40
2018-05-08T04:29:05.814Z,977.34
2018-05-08T04:30:05.647Z,977.30
2018-05-08T04:31:06.826Z,977.29
2018-05-08T04:32:05.727Z,977.25
2018-05-08T04:33:05.284Z,977.42
2018-05-08T04:34:06.220Z,977.38
2018-05-08T04:35:10.406Z,977.37
2018-05-08T04:36:05.728Z,977.30
2018-05-08T04:37:05.602Z,977.35
2018-05-08T04:38:05.505Z,977.23
2018-05-08T04:39:05.228Z,977.22
2018-05-08T04:40:05.304Z,977.36
2018-05-08T04:41:05.927Z,977.32
2018-05-08T04:42:06.020Z,977.25
2018-05-08T04:43:05.080Z,977.36
2018-05-08T04:44:06.597Z,977.38
2018-05-08T04:45:05.976Z,977.40
2018-05-08T04:46:05.776Z,977.28
2018-05-08T04:47:04.987Z,977.44
2018-05-08T04:48:05.712Z,977.32
2018-05-08T04:49:05.938Z,977.43
2018-05-08T04:50:05.455Z,977.40
2018-05-08T04:51:06.304Z,977.39
2018-05-08T04:52:06.177Z,977.38
2018-05-08T04:53:05.187Z,977.44
2018-05-08T04:54:06.777Z,977.37
2018-05-08T04:55:05.570Z,977.36
2018-05-08T04:56:05.619Z,977.39
2018-05-08T04:57:05.778Z,977.29
2018-05-08T04:58:06.011Z,977.32
2018-05-08T04:59:05.880Z,977.31
2018-05-08T05:00:06.102Z,977.39
2018-05-08T05:01:05.548Z,977.33
2018-05-08T05:02:05.315Z,977.32
2018-05-08T05:03:05.469Z,977.49
2018-05-08T05:04:05.325Z,977.42
2018-05-08T05:05:05.094Z,977.42
2018-05-08T05:06:05.600Z,977.44
2018-05-08T05:07:05.694Z,977.44
2018-05-08T05:08:05.267Z,977.40
2018-05-08T05:09:05.501Z,977.31
2018-05-08T05:10:11.601Z,977.39
2018-05-08T05:11:05.818Z,977.30
2018-05-08T05:12:05.409Z,977.38
2018-05-08T05:13:05.435Z,977.34
2018-05-08T05:14:05.499Z,977.39
2018-05-08T05:15:05.669Z,977.36
2018-05-08T05:16:05.280Z,977.41
2018-05-08T05:17:06.875Z,977.35
2018-05-08T05:18:05.817Z,977.40
2018-05-08T05:19:05.421Z,977.42
2018-05-08T05:20:05.864Z,977.42
2018-05-08T05:21:06.257Z,977.38
2018-05-08T05:22:05.343Z,977.35
2018-05-08T05:23:04.982Z,977.43
2018-05-08T05:24:05.354Z,977.28
2018-05-08T05:25:05.820Z,977.37
2018-05-08T05:26:05.210Z,977.27
2018-05-08T05:27:05.813Z,977.42
2018-05-08T05:28:05.350Z,977.32
2018-05-08T05:29:05.248Z,977.49
2018-05-08T05:30:06.365Z,977.32
2018-05-08T05:31:05.812Z,977.37
2018-05-08T05:32:05.025Z,977.28
2018-05-08T05:33:05.720Z,977.39
2018-05-08T05:34:05.562Z,977.39
2018-05-08T05:35:05.815Z,977.47
2018-05-08T05:36:05.065Z,977.35
2018-05-08T05:37:05.553Z,977.37
2018-05-08T05:38:05.871Z,977.48
2018-05-08T05:39:10.928Z,977.39
2018-05-08T05:40:05.656Z,977.36
2018-05-08T05:41:05.766Z,977.36
2018-05-08T05:42:05.106Z,977.44
2018-05-08T05:43:05.174Z,977.41
2018-05-08T05:44:05.558Z,977.44
2018-05-08T05:45:05.953Z,977.35
2018-05-08T05:46:05.227Z,977.34
2018-05-08T05:47:05.359Z,977.40
2018-05-08T05:48:06.247Z,977.31
2018-05-08T05:49:07.007Z,977.28
2018-05-08T05:50:05.512Z,977.42
2018-05-08T05:51:05.075Z,977.42
2018-05-08T05:52:06.132Z,977.45
2018-05-08T05:53:06.045Z,977.39
2018-05-08T05:54:05.255Z,977.50
2018-05-08T05:55:05.940Z,977.41
2018-05-08T05:56:05.468Z,977.49
2018-05-08T05:57:05.348Z,977.37
2018-05-08T05:58:05.841Z,977.46
2018-05-08T05:59:05.692Z,977.48
2018-05-08T06:00:05.666Z,977.40
2018-05-08T06:01:05.102Z,977.42
2018-05-08T06:02:05.712Z,977.30
2018-05-08T06:03:05.369Z,977.27
2018-05-08T06:04:05.511Z,977.36
2018-05-08T06:05:05.236Z,977.47
2018-05-08T06:06:05.700Z,977.41
2018-05-08T06:07:05.416Z,977.24
2018-05-08T06:08:05.288Z,977.23
2018-05-08T06:09:05.601Z,977.17
2018-05-08T06:10:06.727Z,977.20
2018-05-08T06:11:05.875Z,977.29
2018-05-08T06:12:05.658Z,977.23
2018-05-08T06:13:05.595Z,977.17
2018-05-08T06:14:06.046Z,977.13
2018-05-08T06:15:04.999Z,977.22
2018-05-08T06:16:05.787Z,977.22
2018-05-08T06:17:05.031Z,977.33
2018-05-08T06:18:05.400Z,977.24
2018-05-08T06:19:10.432Z,977.15
2018-05-08T06:20:10.514Z,977.18
2018-05-08T06:21:06.069Z,977.27
2018-05-08T06:22:05.974Z,977.18
2018-05-08T06:23:05.296Z,977.21
2018-05-08T06:24:10.565Z,977.23
2018-05-08T06:25:05.482Z,977.29
2018-05-08T06:26:05.643Z,977.31
2018-05-08T06:27:05.911Z,977.34
2018-05-08T06:28:05.052Z,977.23
2018-05-08T06:29:07.022Z,977.31
2018-05-08T06:30:05.181Z,977.25
2018-05-08T06:31:05.876Z,977.34
2018-05-08T06:32:05.539Z,977.34
2018-05-08T06:33:05.352Z,977.34
2018-05-08T06:34:05.922Z,977.34
2018-05-08T06:35:05.177Z,977.30
2018-05-08T06:36:05.523Z,977.22
2018-05-08T06:37:05.575Z,977.24
2018-05-08T06:38:05.200Z,977.30
2018-05-08T06:39:05.179Z,977.21
2018-05-08T06:40:05.275Z,977.16
2018-05-08T06:41:05.949Z,977.36
2018-05-08T06:42:05.407Z,977.24
2018-05-08T06:43:10.164Z,977.33
2018-05-08T06:44:05.279Z,977.12
2018-05-08T06:45:05.653Z,977.30
2018-05-08T06:46:05.822Z,977.36
2018-05-08T06:47:05.697Z,977.27
2018-05-08T06:48:05.993Z,977.27
2018-05-08T06:49:05.260Z,977.24
2018-05-08T06:50:06.180Z,977.18
2018-05-08T06:51:05.246Z,977.24
2018-05-08T06:52:06.093Z,977.21
2018-05-08T06:53:05.381Z,977.24
2018-05-08T06:54:05.737Z,977.19
2018-05-08T06:55:05.340Z,977.24
2018-05-08T06:56:06.129Z,977.27
2018-05-08T06:57:05.585Z,977.13
2018-05-08T06:58:05.318Z,977.10
2018-05-08T06:59:05.955Z,977.15
2018-05-08T07:00:05.782Z,977.03
2018-05-08T07:01:05.206Z,977.23
2018-05-08T07:02:05.578Z,977.17
2018-05-08T07:03:05.595Z,977.03
2018-05-08T07:04:05.833Z,976.97
2018-05-08T07:05:05.571Z,977.14
2018-05-08T07:06:06.850Z,977.12
2018-05-08T07:07:05.741Z,977.00
2018-05-08T07:08:05.431Z,977.00
2018-05-08T07:09:05.917Z,977.18
2018-05-08T07:10:05.076Z,977.06
2018-05-08T07:11:06.057Z,976.97
2018-05-08T07:12:05.482Z,977.00
2018-05-08T07:13:05.334Z,977.09
2018-05-08T07:14:05.382Z,976.97
2018-05-08T07:15:05.950Z,977.11
2018-05-08T07:16:06.374Z,977.00
2018-05-08T07:17:05.971Z,977.00
2018-05-08T07:18:05.039Z,976.92
2018-05-08T07:19:05.291Z,976.92
2018-05-08T07:20:05.670Z,976.95
2018-05-08T07:21:05.157Z,976.95
2018-05-08T07:22:05.569Z,977.16
2018-05-08T07:23:05.867Z,977.01
2018-05-08T07:24:05.546Z,977.16
2018-05-08T07:25:05.953Z,976.99
2018-05-08T07:26:05.690Z,976.96
2018-05-08T07:27:05.195Z,977.02
2018-05-08T07:28:05.083Z,976.85
2018-05-08T07:29:10.193Z,976.85
2018-05-08T07:30:05.562Z,977.14
2018-05-08T07:31:05.684Z,976.88
2018-05-08T07:32:10.970Z,976.94
2018-05-08T07:33:05.501Z,976.91
2018-05-08T07:34:05.583Z,976.97
2018-05-08T07:35:05.966Z,976.83
2018-05-08T07:36:05.825Z,976.97
2018-05-08T07:37:05.542Z,977.06
2018-05-08T07:38:06.674Z,977.03
2018-05-08T07:39:05.757Z,976.91
2018-05-08T07:40:05.730Z,977.06
2018-05-08T07:41:05.345Z,976.97
2018-05-08T07:42:05.772Z,977.03
2018-05-08T07:43:06.071Z,976.97
2018-05-08T07:44:05.983Z,976.88
2018-05-08T07:45:05.173Z,976.94
2018-05-08T07:46:06.056Z,976.94
2018-05-08T07:47:05.230Z,977.00
2018-05-08T07:48:05.541Z,976.94
2018-05-08T07:49:05.549Z,976.88
2018-05-08T07:50:05.835Z,976.88
2018-05-08T07:51:05.689Z,976.94
2018-05-08T07:52:05.773Z,977.05
2018-05-08T07:53:05.705Z,976.90
2018-05-08T07:54:05.746Z,976.99
2018-05-08T07:55:06.140Z,976.99
2018-05-08T07:56:06.139Z,976.93
2018-05-08T07:57:05.358Z,976.96
2018-05-08T07:58:05.121Z,976.93
2018-05-08T07:59:06.729Z,976.93
2018-05-08T08:00:06.464Z,977.02
2018-05-08T08:01:05.382Z,976.88
2018-05-08T08:02:05.574Z,976.90
2018-05-08T08:03:05.896Z,977.02
2018-05-08T08:04:05.150Z,976.96
2018-05-08T08:05:05.920Z,976.84
2018-05-08T08:06:06.003Z,976.96
2018-05-08T08:07:05.530Z,976.99
2018-05-08T08:08:05.621Z,976.93
2018-05-08T08:09:05.737Z,976.84
2018-05-08T08:10:05.313Z,976.84
2018-05-08T08:11:05.595Z,976.95
2018-05-08T08:12:05.949Z,977.04
2018-05-08T08:13:05.736Z,976.93
2018-05-08T08:14:06.008Z,976.93
2018-05-08T08:15:05.874Z,976.96
2018-05-08T08:16:05.653Z,976.87
2018-05-08T08:17:05.485Z,976.75
2018-05-08T08:18:05.382Z,976.93
2018-05-08T08:19:05.681Z,976.90
2018-05-08T08:20:05.913Z,976.90
2018-05-08T08:21:06.161Z,976.90
2018-05-08T08:22:05.801Z,976.81
2018-05-08T08:23:05.917Z,976.90
2018-05-08T08:24:05.949Z,976.87
2018-05-08T08:25:05.137Z,976.90
2018-05-08T08:26:05.538Z,976.81
2018-05-08T08:27:05.534Z,976.81
2018-05-08T08:28:05.541Z,976.86
2018-05-08T08:29:05.927Z,976.74
2018-05-08T08:30:10.118Z,976.74
2018-05-08T08:31:05.210Z,976.82
2018-05-08T08:32:06.123Z,976.74
2018-05-08T08:33:05.139Z,976.85
2018-05-08T08:34:05.632Z,976.63
2018-05-08T08:35:05.146Z,976.76
2018-05-08T08:36:05.619Z,976.79
2018-05-08T08:37:05.719Z,976.79
2018-05-08T08:38:05.563Z,976.76
2018-05-08T08:39:05.865Z,976.74
2018-05-08T08:40:05.312Z,976.66
2018-05-08T08:41:05.991Z,976.71
2018-05-08T08:42:05.603Z,976.71
2018-05-08T08:43:05.515Z,976.63
2018-05-08T08:44:05.953Z,976.66
2018-05-08T08:45:05.228Z,976.76
2018-05-08T08:46:05.508Z,976.82
2018-05-08T08:47:06.263Z,976.77
2018-05-08T08:48:05.134Z,976.69
2018-05-08T08:49:05.986Z,976.69
2018-05-08T08:50:05.397Z,976.60
2018-05-08T08:51:05.318Z,976.63
2018-05-08T08:52:05.699Z,976.69
2018-05-08T08:53:05.151Z,976.66
2018-05-08T08:54:05.660Z,976.60
2018-05-08T08:55:05.937Z,976.54
2018-05-08T08:56:05.647Z,976.51
2018-05-08T08:57:05.179Z,976.51
2018-05-08T08:58:06.022Z,976.60
2018-05-08T08:59:07.280Z,976.39
2018-05-08T09:00:05.366Z,976.57
2018-05-08T09:01:05.024Z,976.62
2018-05-08T09:02:06.172Z,976.48
2018-05-08T09:03:05.260Z,976.39
2018-05-08T09:04:05.411Z,976.56
2018-05-08T09:05:05.499Z,976.41
2018-05-08T09:06:05.983Z,976.53
2018-05-08T09:07:05.430Z,976.53
2018-05-08T09:08:05.959Z,976.47
2018-05-08T09:09:06.103Z,976.44
2018-05-08T09:10:05.440Z,976.50
2018-05-08T09:11:05.495Z,976.38
2018-05-08T09:12:05.369Z,976.47
2018-05-08T09:13:05.545Z,976.44
2018-05-08T09:14:05.250Z,976.41
2018-05-08T09:15:05.889Z,976.32
2018-05-08T09:16:05.939Z,976.38
2018-05-08T09:17:06.072Z,976.32
2018-05-08T09:18:05.352Z,976.43
2018-05-08T09:19:05.041Z,976.37
2018-05-08T09:20:06.014Z,976.34
2018-05-08T09:21:05.825Z,976.25
2018-05-08T09:22:05.572Z,976.37
2018-05-08T09:23:05.872Z,976.37
2018-05-08T09:24:05.144Z,976.28
2018-05-08T09:25:06.271Z,976.25
2018-05-08T09:26:05.543Z,976.25
2018-05-08T09:27:06.747Z,976.22
2018-05-08T09:28:05.886Z,976.16
2018-05-08T09:29:06.289Z,976.28
2018-05-08T09:30:05.779Z,976.19
2018-05-08T09:31:05.723Z,976.19
2018-05-08T09:32:05.826Z,976.31
2018-05-08T09:33:08.839Z,976.37
2018-05-08T09:34:05.856Z,976.23
2018-05-08T09:35:05.897Z,976.20
2018-05-08T09:36:05.969Z,976.23
2018-05-08T09:37:05.408Z,976.20
2018-05-08T09:38:05.841Z,976.31
2018-05-08T09:39:05.100Z,976.22
2018-05-08T09:40:06.275Z,976.19
2018-05-08T09:41:05.299Z,976.11
2018-05-08T09:42:05.497Z,976.16
2018-05-08T09:43:06.228Z,976.16
2018-05-08T09:44:05.499Z,976.08
2018-05-08T09:45:05.711Z,976.02
2018-05-08T09:46:05.860Z,976.02
2018-05-08T09:47:05.975Z,976.10
2018-05-08T09:48:06.376Z,976.10
2018-05-08T09:49:06.438Z,976.13
2018-05-08T09:50:05.899Z,976.10
2018-05-08T09:51:05.855Z,976.18
2018-05-08T09:52:05.853Z,975.86
2018-05-08T09:53:05.280Z,975.97
2018-05-08T09:54:05.358Z,976.06
2018-05-08T09:55:05.375Z,975.94
2018-05-08T09:56:05.538Z,975.94
2018-05-08T09:57:05.006Z,975.94
2018-05-08T09:58:05.602Z,975.97
2018-05-08T09:59:05.239Z,976.05
2018-05-08T10:00:05.676Z,975.88
2018-05-08T10:01:05.935Z,976.05
2018-05-08T10:02:05.093Z,976.11
2018-05-08T10:03:05.775Z,976.09
2018-05-08T10:04:05.452Z,975.91
2018-05-08T10:05:05.243Z,976.00
2018-05-08T10:06:05.491Z,975.97
2018-05-08T10:07:06.681Z,975.94
2018-05-08T10:08:05.651Z,975.94
2018-05-08T10:09:05.307Z,975.88
2018-05-08T10:10:05.596Z,975.79
2018-05-08T10:11:05.773Z,975.82
2018-05-08T10:12:05.801Z,975.88
2018-05-08T10:13:04.946Z,975.76
2018-05-08T10:14:05.886Z,975.82
2018-05-08T10:15:05.086Z,975.87
2018-05-08T10:16:05.085Z,975.90
2018-05-08T10:17:05.735Z,975.76
2018-05-08T10:18:05.633Z,975.81
2018-05-08T10:19:05.658Z,975.78
2018-05-08T10:20:05.818Z,975.75
2018-05-08T10:21:05.264Z,975.75
2018-05-08T10:22:05.060Z,975.72
2018-05-08T10:23:05.993Z,975.87
2018-05-08T10:24:05.323Z,975.69
2018-05-08T10:25:05.568Z,975.55
2018-05-08T10:26:06.888Z,975.60
2018-05-08T10:27:06.099Z,975.57
2018-05-08T10:28:05.249Z,975.51
2018-05-08T10:29:05.543Z,975.60
2018-05-08T10:30:05.825Z,975.60
2018-05-08T10:31:05.222Z,975.63
2018-05-08T10:32:05.826Z,975.69
2018-05-08T10:33:05.642Z,975.63
2018-05-08T10:34:06.455Z,975.60
2018-05-08T10:35:05.336Z,975.60
2018-05-08T10:36:05.372Z,975.57
2018-05-08T10:37:05.859Z,975.63
2018-05-08T10:38:05.591Z,975.57
2018-05-08T10:39:05.391Z,975.63
2018-05-08T10:40:06.759Z,975.63
2018-05-08T10:41:10.770Z,975.48
2018-05-08T10:42:05.439Z,975.45
2018-05-08T10:43:05.484Z,975.45
2018-05-08T10:44:05.191Z,975.45
2018-05-08T10:45:06.084Z,975.48
2018-05-08T10:46:05.943Z,975.42
2018-05-08T10:47:05.715Z,975.60
2018-05-08T10:48:05.168Z,975.51
2018-05-08T10:49:05.320Z,975.54
2018-05-08T10:50:05.015Z,975.45
2018-05-08T10:51:05.121Z,975.45
2018-05-08T10:52:10.199Z,975.42
2018-05-08T10:53:05.249Z,975.48
2018-05-08T10:54:05.343Z,975.36
2018-05-08T10:55:05.694Z,975.42
2018-05-08T10:56:05.923Z,975.31
2018-05-08T10:57:06.042Z,975.33
2018-05-08T10:58:05.734Z,975.28
2018-05-08T10:59:05.947Z,975.36
2018-05-08T11:00:05.120Z,975.19
2018-05-08T11:01:10.418Z,975.28
2018-05-08T11:02:06.447Z,975.31
2018-05-08T11:03:05.887Z,975.10
2018-05-08T11:04:05.935Z,975.25
2018-05-08T11:05:05.672Z,975.16
2018-05-08T11:06:06.043Z,975.30
2018-05-08T11:07:05.892Z,975.15
2018-05-08T11:08:05.714Z,975.18
2018-05-08T11:09:05.359Z,975.15
2018-05-08T11:10:05.288Z,975.18
2018-05-08T11:11:05.577Z,975.18
2018-05-08T11:12:05.592Z,975.21
2018-05-08T11:13:05.268Z,975.00
2018-05-08T11:14:05.354Z,975.20
2018-05-08T11:15:06.014Z,975.11
2018-05-08T11:16:05.757Z,975.23
2018-05-08T11:17:05.931Z,975.20
2018-05-08T11:18:06.029Z,975.17
2018-05-08T11:19:05.998Z,975.14
2018-05-08T11:20:06.470Z,975.14
2018-05-08T11:21:05.617Z,975.05
2018-05-08T11:22:05.387Z,975.05
2018-05-08T11:23:05.750Z,974.95
2018-05-08T11:24:05.447Z,974.97
2018-05-08T11:25:05.775Z,974.83
2018-05-08T11:26:05.813Z,974.95
2018-05-08T11:27:05.348Z,974.83
2018-05-08T11:28:05.090Z,974.77
2018-05-08T11:29:07.072Z,974.89
2018-05-08T11:30:06.910Z,974.77
2018-05-08T11:31:05.821Z,974.83
2018-05-08T11:32:05.707Z,974.77
2018-05-08T11:33:05.351Z,974.74
2018-05-08T11:34:05.776Z,974.65
2018-05-08T11:35:05.974Z,974.68
2018-05-08T11:36:05.309Z,974.62
2018-05-08T11:37:05.853Z,974.70
2018-05-08T11:38:05.999Z,974.61
2018-05-08T11:39:06.202Z,974.58
2018-05-08T11:40:05.328Z,974.49
2018-05-08T11:41:05.314Z,974.58
2018-05-08T11:42:05.985Z,974.55
2018-05-08T11:43:05.482Z,974.46
2018-05-08T11:44:05.672Z,974.58
2018-05-08T11:45:05.842Z,974.49
2018-05-08T11:46:06.046Z,974.46
2018-05-08T11:47:06.358Z,974.31
2018-05-08T11:48:05.505Z,974.46
2018-05-08T11:49:05.870Z,974.54
2018-05-08T11:50:05.614Z,974.42
2018-05-08T11:51:05.366Z,974.30
2018-05-08T11:52:05.001Z,974.28
2018-05-08T11:53:05.798Z,974.25
2018-05-08T11:54:06.053Z,974.48
2018-05-08T11:55:05.972Z,974.37
2018-05-08T11:56:05.287Z,974.48
2018-05-08T11:57:05.437Z,974.51
2018-05-08T11:58:05.169Z,974.40
2018-05-08T11:59:05.107Z,974.43
2018-05-08T12:00:05.371Z,974.40
2018-05-08T12:01:05.368Z,974.54
2018-05-08T12:02:05.079Z,974.25
2018-05-08T12:03:05.483Z,974.37
2018-05-08T12:04:05.753Z,974.42
2018-05-08T12:05:05.265Z,974.13
2018-05-08T12:06:05.220Z,974.22
2018-05-08T12:07:06.112Z,974.39
2018-05-08T12:08:05.721Z,974.25
2018-05-08T12:09:05.891Z,974.10
2018-05-08T12:10:05.433Z,974.22
2018-05-08T12:11:05.071Z,974.10
2018-05-08T12:12:05.464Z,974.16
2018-05-08T12:13:05.767Z,974.10
2018-05-08T12:14:05.225Z,974.18
2018-05-08T12:15:06.853Z,974.07
2018-05-08T12:16:05.957Z,974.03
2018-05-08T12:17:06.305Z,974.06
2018-05-08T12:18:05.278Z,973.97
2018-05-08T12:19:05.662Z,973.88
2018-05-08T12:20:05.997Z,973.94
2018-05-08T12:21:05.197Z,974.00
2018-05-08T12:22:10.698Z,973.88
2018-05-08T12:23:10.791Z,973.85
2018-05-08T12:24:05.853Z,973.91
2018-05-08T12:25:10.600Z,973.94
2018-05-08T12:26:05.823Z,973.91
2018-05-08T12:27:05.189Z,973.82
2018-05-08T12:28:05.403Z,973.85